createdAt,value
2022-11-05T00:00:31.001Z,94653.56
2022-11-05T00:03:16.938Z,94682.00
2022-11-05T00:06:03.700Z,94669.84
2022-11-05T00:08:50.029Z,94686.47
2022-11-05T00:11:39.480Z,94672.19
2022-11-05T00:14:26.417Z,94687.44
2022-11-05T00:16:56.273Z,94643.09
2022-11-05T00:19:24.562Z,94664.41
2022-11-05T00:22:09.924Z,94687.25
2022-11-05T00:24:55.193Z,94677.13
2022-11-05T00:27:25.226Z,94652.09
2022-11-05T00:29:53.426Z,94673.97
2022-11-05T00:32:21.484Z,94677.13
2022-11-05T00:34:50.033Z,94638.91
2022-11-05T00:37:18.080Z,94672.66
2022-11-05T00:39:46.176Z,94679.28
2022-11-05T00:42:32.074Z,94640.31
2022-11-05T00:45:02.255Z,94665.19
2022-11-05T00:47:50.756Z,94669.47
2022-11-05T00:50:19.687Z,94662.47
2022-11-05T00:52:58.253Z,94664.44
2022-11-05T00:55:33.585Z,94657.03
2022-11-05T00:58:05.342Z,94645.91
2022-11-05T01:00:37.355Z,94644.59
2022-11-05T01:03:07.907Z,94646.47
2022-11-05T01:05:41.712Z,94649.06
2022-11-05T01:08:12.648Z,94645.50
2022-11-05T01:10:45.756Z,94639.72
2022-11-05T01:13:15.903Z,94633.28
2022-11-05T01:15:47.065Z,94633.66
2022-11-05T01:18:15.875Z,94618.22
2022-11-05T01:20:44.114Z,94631.88
2022-11-05T01:23:13.881Z,94613.53
2022-11-05T01:25:42.821Z,94566.63
2022-11-05T01:28:11.764Z,94618.03
2022-11-05T01:30:40.734Z,94627.31
2022-11-05T01:33:12.684Z,94604.19
2022-11-05T01:35:41.396Z,94607.19
2022-11-05T01:38:10.852Z,94592.44
2022-11-05T01:40:44.573Z,94593.91
2022-11-05T01:43:19.280Z,94597.56
2022-11-05T01:45:51.420Z,94591.94
2022-11-05T01:48:23.059Z,94590.16
2022-11-05T01:50:58.918Z,94551.19
2022-11-05T01:53:32.418Z,94562.38
2022-11-05T01:56:04.829Z,94590.59
2022-11-05T01:58:38.788Z,94588.47
2022-11-05T02:01:07.373Z,94577.22
2022-11-05T02:03:37.667Z,94572.28
2022-11-05T02:06:09.570Z,94574.19
2022-11-05T02:08:54.347Z,94575.94
2022-11-05T02:11:22.885Z,94558.56
2022-11-05T02:13:52.220Z,94508.25
2022-11-05T02:16:33.547Z,94588.78
2022-11-05T02:19:19.045Z,94580.78
2022-11-05T02:22:28.428Z,94567.81
2022-11-05T02:25:04.175Z,94571.25
2022-11-05T02:28:14.630Z,94571.06
2022-11-05T02:30:51.072Z,94577.22
2022-11-05T02:33:37.321Z,94573.53
2022-11-05T02:36:21.003Z,94575.00
2022-11-05T02:39:00.604Z,94575.66
2022-11-05T02:41:41.667Z,94579.69
2022-11-05T02:44:20.893Z,94576.03
2022-11-05T02:46:59.109Z,94586.13
2022-11-05T02:49:43.015Z,94579.22
2022-11-05T02:52:23.140Z,94581.06
2022-11-05T02:55:00.914Z,94581.78
2022-11-05T02:57:31.125Z,94593.13
2022-11-05T03:00:03.255Z,94594.88
2022-11-05T03:02:33.715Z,94566.28
2022-11-05T03:05:06.056Z,94595.47
2022-11-05T03:07:45.400Z,94579.22
2022-11-05T03:10:27.018Z,94579.22
2022-11-05T03:13:06.005Z,94571.94
2022-11-05T03:15:45.978Z,94581.63
2022-11-05T03:18:20.306Z,94592.56
2022-11-05T03:20:52.256Z,94589.09
2022-11-05T03:23:28.106Z,94570.16
2022-11-05T03:26:03.461Z,94588.34
2022-11-05T03:28:37.048Z,94591.03
2022-11-05T03:31:07.824Z,94594.31
2022-11-05T03:33:40.149Z,94593.94
2022-11-05T03:36:16.282Z,94584.44
2022-11-05T03:38:50.498Z,94603.09
2022-11-05T03:41:20.605Z,94610.00
2022-11-05T03:43:51.744Z,94610.88
2022-11-05T03:46:29.476Z,94617.97
2022-11-05T03:49:04.793Z,94622.56
2022-11-05T03:51:40.303Z,94627.22
2022-11-05T03:54:10.109Z,94586.50
2022-11-05T03:56:43.733Z,94602.28
2022-11-05T03:59:13.591Z,94620.78
2022-11-05T04:01:44.303Z,94619.19
2022-11-05T04:04:14.053Z,94624.59
2022-11-05T04:07:08.808Z,94626.41
2022-11-05T04:09:54.696Z,94624.72
2022-11-05T04:12:40.703Z,94638.72
2022-11-05T04:15:10.104Z,94635.34
2022-11-05T04:17:37.233Z,94606.81
2022-11-05T04:20:24.681Z,94621.56
2022-11-05T04:23:32.178Z,94635.69
2022-11-05T04:26:04.891Z,94638.47
2022-11-05T04:28:47.131Z,94624.88
2022-11-05T04:31:15.290Z,94653.38
2022-11-05T04:33:43.727Z,94650.44
2022-11-05T04:36:13.526Z,94659.03
2022-11-05T04:38:43.847Z,94657.84
2022-11-05T04:41:16.308Z,94646.78
2022-11-05T04:43:45.096Z,94647.97
2022-11-05T04:46:13.683Z,94661.03
2022-11-05T04:48:42.261Z,94661.81
2022-11-05T04:51:10.610Z,94634.59
2022-11-05T04:53:40.196Z,94679.88
2022-11-05T04:56:12.536Z,94679.75
2022-11-05T04:58:41.408Z,94659.47
2022-11-05T05:01:14.995Z,94665.06
2022-11-05T05:03:44.651Z,94661.31
2022-11-05T05:06:13.485Z,94670.00
2022-11-05T05:08:43.769Z,94670.28
2022-11-05T05:11:13.917Z,94662.44
2022-11-05T05:13:42.017Z,94662.13
2022-11-05T05:16:13.191Z,94606.19
2022-11-05T05:18:46.036Z,94673.56
2022-11-05T05:21:32.612Z,94683.44
2022-11-05T05:24:02.117Z,94700.56
2022-11-05T05:26:30.796Z,94703.88
2022-11-05T05:28:59.312Z,94695.16
2022-11-05T05:31:29.082Z,94694.81
2022-11-05T05:33:57.488Z,94701.47
2022-11-05T05:36:27.631Z,94703.88
2022-11-05T05:38:56.036Z,94696.38
2022-11-05T05:41:25.687Z,94705.66
2022-11-05T05:43:54.137Z,94711.31
2022-11-05T05:46:22.107Z,94709.16
2022-11-05T05:48:52.168Z,94715.41
2022-11-05T05:51:20.922Z,94714.28
2022-11-05T05:53:49.443Z,94713.59
2022-11-05T05:56:20.725Z,94704.72
2022-11-05T05:58:50.632Z,94727.56
2022-11-05T06:01:20.146Z,94716.91
2022-11-05T06:03:50.663Z,94712.19
2022-11-05T06:06:21.346Z,94717.97
2022-11-05T06:08:50.973Z,94705.78
2022-11-05T06:11:19.777Z,94678.50
2022-11-05T06:13:49.626Z,94716.59
2022-11-05T06:16:19.597Z,94700.53
2022-11-05T06:18:48.845Z,94702.97
2022-11-05T06:21:18.607Z,94703.16
2022-11-05T06:23:48.466Z,94723.56
2022-11-05T06:26:19.041Z,94719.22
2022-11-05T06:28:47.888Z,94713.81
2022-11-05T06:31:18.178Z,94720.97
2022-11-05T06:33:47.519Z,94717.06
2022-11-05T06:36:18.569Z,94719.16
2022-11-05T06:38:46.591Z,94710.16
2022-11-05T06:41:15.534Z,94710.00
2022-11-05T06:43:44.321Z,94638.94
2022-11-05T06:46:13.557Z,94645.50
2022-11-05T06:48:42.931Z,94708.84
2022-11-05T06:51:10.919Z,94710.16
2022-11-05T06:53:38.991Z,94632.63
2022-11-05T06:56:09.029Z,94708.94
2022-11-05T06:58:36.982Z,94665.09
2022-11-05T07:01:10.173Z,94699.16
2022-11-05T07:03:39.593Z,94681.97
2022-11-05T07:06:09.934Z,94693.78
2022-11-05T07:08:39.362Z,94678.06
2022-11-05T07:11:07.406Z,94685.00
2022-11-05T07:13:36.728Z,94668.53
2022-11-05T07:16:07.627Z,94675.34
2022-11-05T07:18:36.499Z,94675.06
2022-11-05T07:21:05.580Z,94679.91
2022-11-05T07:23:35.554Z,94675.84
2022-11-05T07:26:04.174Z,94681.31
2022-11-05T07:28:32.276Z,94662.31
2022-11-05T07:31:00.400Z,94684.56
2022-11-05T07:33:36.340Z,94679.22
2022-11-05T07:36:05.374Z,94678.00
2022-11-05T07:38:35.370Z,94677.75
2022-11-05T07:41:03.376Z,94664.56
2022-11-05T07:43:32.864Z,94648.09
2022-11-05T07:46:01.209Z,94658.59
2022-11-05T07:48:29.316Z,94660.00
2022-11-05T07:50:58.150Z,94648.69
2022-11-05T07:53:26.382Z,94643.25
2022-11-05T07:55:57.493Z,94655.22
2022-11-05T07:58:26.341Z,94608.25
2022-11-05T08:00:55.906Z,94662.81
2022-11-05T08:03:24.722Z,94660.94
2022-11-05T08:05:53.268Z,94640.75
2022-11-05T08:08:22.765Z,94651.03
2022-11-05T08:10:51.102Z,94655.59
2022-11-05T08:13:20.671Z,94625.75
2022-11-05T08:15:49.311Z,94650.53
2022-11-05T08:18:20.335Z,94628.06
2022-11-05T08:20:48.954Z,94645.56
2022-11-05T08:23:17.626Z,94629.34
2022-11-05T08:25:45.885Z,94637.84
2022-11-05T08:28:14.475Z,94640.13
2022-11-05T08:30:46.956Z,94641.44
2022-11-05T08:33:17.568Z,94630.78
2022-11-05T08:35:45.884Z,94615.63
2022-11-05T08:38:17.423Z,94628.31
2022-11-05T08:40:49.179Z,94625.56
2022-11-05T08:43:17.253Z,94622.31
2022-11-05T08:45:46.739Z,94620.56
2022-11-05T08:48:17.261Z,94620.06
2022-11-05T08:50:46.488Z,94617.06
2022-11-05T08:53:16.506Z,94606.09
2022-11-05T08:55:47.785Z,94626.63
2022-11-05T08:58:17.408Z,94623.34
2022-11-05T09:00:50.510Z,94615.47
2022-11-05T09:03:21.499Z,94601.56
2022-11-05T09:05:49.627Z,94614.56
2022-11-05T09:08:20.798Z,94617.25
2022-11-05T09:10:50.258Z,94619.88
2022-11-05T09:13:20.429Z,94608.13
2022-11-05T09:15:51.582Z,94611.63
2022-11-05T09:18:21.908Z,94608.88
2022-11-05T09:20:52.266Z,94615.88
2022-11-05T09:23:20.766Z,94617.72
2022-11-05T09:25:49.159Z,94613.94
2022-11-05T09:28:19.255Z,94612.34
2022-11-05T09:30:51.449Z,94581.56
2022-11-05T09:33:21.635Z,94601.72
2022-11-05T09:35:50.372Z,94600.47
2022-11-05T09:38:18.610Z,94586.84
2022-11-05T09:40:55.994Z,94590.56
2022-11-05T09:43:31.803Z,94590.03
2022-11-05T09:46:05.855Z,94598.31
2022-11-05T09:48:35.953Z,94590.38
2022-11-05T09:51:06.973Z,94573.94
2022-11-05T09:53:41.819Z,94588.78
2022-11-05T09:56:21.494Z,94580.44
2022-11-05T09:58:57.245Z,94590.53
2022-11-05T10:01:35.291Z,94596.75
2022-11-05T10:04:09.450Z,94587.69
2022-11-05T10:06:39.922Z,94595.31
2022-11-05T10:09:13.206Z,94548.88
2022-11-05T10:11:46.408Z,94598.00
2022-11-05T10:14:20.975Z,94588.34
2022-11-05T10:16:55.444Z,94590.16
2022-11-05T10:19:28.297Z,94567.22
2022-11-05T10:22:07.130Z,94567.34
2022-11-05T10:24:36.134Z,94574.88
2022-11-05T10:27:06.551Z,94515.00
2022-11-05T10:29:36.503Z,94557.84
2022-11-05T10:32:07.958Z,94569.97
2022-11-05T10:34:39.729Z,94543.66
2022-11-05T10:37:10.020Z,94570.06
2022-11-05T10:39:38.075Z,94574.16
2022-11-05T10:42:21.267Z,94581.16
2022-11-05T10:44:58.512Z,94576.59
2022-11-05T10:47:47.699Z,94566.50
2022-11-05T10:50:20.030Z,94563.09
2022-11-05T10:52:58.519Z,94567.16
2022-11-05T10:55:29.700Z,94570.97
2022-11-05T10:58:12.874Z,94562.25
2022-11-05T11:00:41.664Z,94552.69
2022-11-05T11:03:38.967Z,94552.50
2022-11-05T11:06:18.575Z,94563.44
2022-11-05T11:08:49.661Z,94551.63
2022-11-05T11:11:29.480Z,94544.72
2022-11-05T11:14:04.717Z,94553.06
2022-11-05T11:16:38.093Z,94541.09
2022-11-05T11:19:25.922Z,94544.63
2022-11-05T11:22:19.380Z,94535.22
2022-11-05T11:24:50.402Z,94521.56
2022-11-05T11:27:23.943Z,94536.09
2022-11-05T11:29:58.029Z,94535.25
2022-11-05T11:32:29.381Z,94540.72
2022-11-05T11:34:58.993Z,94542.38
2022-11-05T11:37:30.019Z,94535.81
2022-11-05T11:40:02.550Z,94527.00
2022-11-05T11:42:36.937Z,94534.78
2022-11-05T11:45:09.263Z,94532.84
2022-11-05T11:47:44.294Z,94527.66
2022-11-05T11:50:36.095Z,94544.28
2022-11-05T11:53:28.199Z,94532.97
2022-11-05T11:56:05.546Z,94528.09
2022-11-05T11:58:52.389Z,94528.38
2022-11-05T12:01:50.730Z,94530.19
2022-11-05T12:04:28.737Z,94530.63
2022-11-05T12:07:11.121Z,94527.47
2022-11-05T12:09:58.661Z,94529.97
2022-11-05T12:12:38.056Z,94485.16
2022-11-05T12:15:36.364Z,94522.50
2022-11-05T12:18:07.285Z,94522.72
2022-11-05T12:20:57.949Z,94516.22
2022-11-05T12:23:45.908Z,94514.94
2022-11-05T12:26:24.443Z,94520.19
2022-11-05T12:29:18.503Z,94516.28
2022-11-05T12:31:58.322Z,94492.88
2022-11-05T12:34:39.573Z,94522.16
2022-11-05T12:37:23.660Z,94504.84
2022-11-05T12:40:08.620Z,94511.81
2022-11-05T12:42:50.825Z,94519.25
2022-11-05T12:45:31.970Z,94527.41
2022-11-05T12:48:17.522Z,94523.88
2022-11-05T12:50:52.256Z,94530.56
2022-11-05T12:53:42.795Z,94530.38
2022-11-05T12:56:20.320Z,94524.09
2022-11-05T12:58:55.314Z,94507.88
2022-11-05T13:01:33.107Z,94523.00
2022-11-05T13:04:06.981Z,94523.59
2022-11-05T13:06:40.446Z,94503.88
2022-11-05T13:09:15.019Z,94512.94
2022-11-05T13:11:52.631Z,94512.81
2022-11-05T13:14:26.610Z,94508.13
2022-11-05T13:17:01.494Z,94525.63
2022-11-05T13:19:34.786Z,94521.41
2022-11-05T13:22:09.985Z,94517.97
2022-11-05T13:24:43.470Z,94525.56
2022-11-05T13:27:39.878Z,94519.44
2022-11-05T13:30:14.342Z,94514.03
2022-11-05T13:32:47.762Z,94528.63
2022-11-05T13:35:19.056Z,94523.97
2022-11-05T13:38:11.783Z,94515.50
2022-11-05T13:40:50.260Z,94470.94
2022-11-05T13:43:51.524Z,94508.22
2022-11-05T13:46:47.101Z,94532.03
2022-11-05T13:49:47.843Z,94512.50
2022-11-05T13:52:39.284Z,94528.16
2022-11-05T13:55:41.601Z,94528.16
2022-11-05T13:58:46.788Z,94530.00
2022-11-05T14:01:38.685Z,94526.53
2022-11-05T14:04:08.490Z,94533.50
2022-11-05T14:06:38.344Z,94501.88
2022-11-05T14:09:12.998Z,94525.19
2022-11-05T14:11:44.113Z,94530.28
2022-11-05T14:14:22.976Z,94541.50
2022-11-05T14:16:54.311Z,94513.38
2022-11-05T14:19:52.330Z,94533.59
2022-11-05T14:22:43.303Z,94547.28
2022-11-05T14:26:03.433Z,94540.88
2022-11-05T14:28:45.752Z,94537.56
2022-11-05T14:32:07.178Z,94542.81
2022-11-05T14:34:46.266Z,94547.03
2022-11-05T14:37:26.463Z,94537.47
2022-11-05T14:39:56.302Z,94535.56
2022-11-05T14:42:27.947Z,94543.09
2022-11-05T14:45:21.449Z,94530.75
2022-11-05T14:47:56.468Z,94526.84
2022-11-05T14:50:37.926Z,94499.81
2022-11-05T14:53:13.282Z,94534.06
2022-11-05T14:55:44.880Z,94534.81
2022-11-05T14:58:35.830Z,94532.13
2022-11-05T15:01:08.285Z,94516.78
2022-11-05T15:04:12.575Z,94530.69
2022-11-05T15:07:31.469Z,94532.94
2022-11-05T15:10:09.834Z,94534.44
2022-11-05T15:12:43.971Z,94535.19
2022-11-05T15:15:22.339Z,94536.69
2022-11-05T15:18:01.516Z,94506.38
2022-11-05T15:20:40.124Z,94514.84
2022-11-05T15:23:16.627Z,94536.16
2022-11-05T15:25:53.441Z,94534.69
2022-11-05T15:28:28.726Z,94536.41
2022-11-05T15:30:59.355Z,94521.28
2022-11-05T15:33:27.946Z,94524.22
2022-11-05T15:35:56.488Z,94528.19
2022-11-05T15:38:34.417Z,94537.84
2022-11-05T15:41:05.325Z,94542.09
2022-11-05T15:43:33.937Z,94550.25
2022-11-05T15:46:04.287Z,94540.06
2022-11-05T15:48:33.110Z,94546.00
2022-11-05T15:51:01.661Z,94512.69
2022-11-05T15:56:51.812Z,94531.94
2022-11-05T15:59:21.713Z,94547.31
2022-11-05T16:01:53.815Z,94549.00
2022-11-05T16:04:26.260Z,94542.03
2022-11-05T16:06:57.268Z,94533.16
2022-11-05T16:09:29.198Z,94539.63
2022-11-05T16:12:30.119Z,94537.81
2022-11-05T16:15:00.787Z,94504.00
2022-11-05T16:17:32.342Z,94553.84
2022-11-05T16:20:00.859Z,94545.09
2022-11-05T16:22:47.140Z,94551.78
2022-11-05T16:25:42.384Z,94556.56
2022-11-05T16:28:23.703Z,94552.47
2022-11-05T16:31:00.979Z,94558.31
2022-11-05T16:33:41.220Z,94563.13
2022-11-05T16:36:10.739Z,94575.16
2022-11-05T16:38:39.232Z,94572.91
2022-11-05T16:41:14.908Z,94560.25
2022-11-05T16:43:52.724Z,94524.50
2022-11-05T16:46:21.954Z,94569.72
2022-11-05T16:48:50.458Z,94555.81
2022-11-05T16:51:23.342Z,94579.09
2022-11-05T16:53:54.673Z,94578.38
2022-11-05T16:56:26.633Z,94569.94
2022-11-05T16:58:54.707Z,94583.56
2022-11-05T17:01:24.251Z,94573.69
2022-11-05T17:03:54.215Z,94581.81
2022-11-05T17:06:23.438Z,94579.00
2022-11-05T17:08:52.267Z,94554.28
2022-11-05T17:11:22.087Z,94572.50
2022-11-05T17:13:51.441Z,94574.97
2022-11-05T17:16:19.472Z,94586.59
2022-11-05T17:18:47.947Z,94585.06
2022-11-05T17:21:15.803Z,94589.97
2022-11-05T17:23:44.017Z,94591.66
2022-11-05T17:26:13.729Z,94593.50
2022-11-05T17:28:42.681Z,94591.22
2022-11-05T17:31:17.511Z,94575.38
2022-11-05T17:33:45.665Z,94565.47
2022-11-05T17:36:16.825Z,94581.41
2022-11-05T17:38:45.417Z,94592.06
2022-11-05T17:41:14.513Z,94586.88
2022-11-05T17:43:44.840Z,94583.13
2022-11-05T17:46:16.648Z,94534.44
2022-11-05T17:48:44.926Z,94595.50
2022-11-05T17:51:16.515Z,94588.06
2022-11-05T17:53:45.517Z,94585.50
2022-11-05T17:56:24.745Z,94564.44
2022-11-05T17:58:57.592Z,94580.06
2022-11-05T18:01:29.885Z,94581.59
2022-11-05T18:04:02.480Z,94514.47
2022-11-05T18:06:36.080Z,94566.88
2022-11-05T18:09:04.227Z,94523.63
2022-11-05T18:11:32.660Z,94566.41
2022-11-05T18:14:02.103Z,94563.47
2022-11-05T18:16:31.765Z,94573.81
2022-11-05T18:19:00.665Z,94576.50
2022-11-05T18:21:29.256Z,94572.50
2022-11-05T18:23:58.534Z,94571.81
2022-11-05T18:26:26.609Z,94564.56
2022-11-05T18:28:54.915Z,94571.00
2022-11-05T18:31:23.750Z,94572.78
2022-11-05T18:33:58.977Z,94578.44
2022-11-05T18:36:31.743Z,94575.06
2022-11-05T18:39:03.518Z,94578.09
2022-11-05T18:41:32.351Z,94576.41
2022-11-05T18:44:01.903Z,94569.63
2022-11-05T18:46:56.592Z,94561.94
2022-11-05T18:49:21.070Z,94563.38
2022-11-05T18:51:50.055Z,94561.81
2022-11-05T18:54:18.982Z,94567.78
2022-11-05T18:56:49.156Z,94569.09
2022-11-05T19:02:08.891Z,94581.91
2022-11-05T19:04:38.666Z,94585.41
2022-11-05T19:07:07.929Z,94582.88
2022-11-05T19:09:37.236Z,94533.47
2022-11-05T19:12:06.669Z,94583.72
2022-11-05T19:14:35.279Z,94579.00
2022-11-05T19:17:04.375Z,94586.22
2022-11-05T19:19:33.015Z,94578.00
2022-11-05T19:22:03.336Z,94574.81
2022-11-05T19:24:31.628Z,94543.91
2022-11-05T19:27:00.103Z,94585.75
2022-11-05T19:29:28.473Z,94574.88
2022-11-05T19:31:56.625Z,94566.63
2022-11-05T19:34:25.519Z,94578.72
2022-11-05T19:36:54.310Z,94573.53
2022-11-05T19:39:24.788Z,94575.75
2022-11-05T19:41:52.945Z,94559.81
2022-11-05T19:44:21.209Z,94582.38
2022-11-05T19:46:49.480Z,94593.00
2022-11-05T19:49:17.910Z,94584.38
2022-11-05T19:51:45.989Z,94583.84
2022-11-05T19:54:14.168Z,94581.34
2022-11-05T19:56:43.919Z,94592.16
2022-11-05T19:59:13.450Z,94577.97
2022-11-05T20:01:41.671Z,94597.06
2022-11-05T20:04:12.152Z,94589.31
2022-11-05T20:06:41.042Z,94595.69
2022-11-05T20:09:21.627Z,94594.41
2022-11-05T20:12:01.450Z,94598.25
2022-11-05T20:14:30.037Z,94594.53
2022-11-05T20:16:58.446Z,94601.69
2022-11-05T20:19:27.593Z,94604.16
2022-11-05T20:21:56.193Z,94602.88
2022-11-05T20:24:25.896Z,94604.25
2022-11-05T20:26:57.768Z,94614.88
2022-11-05T20:29:33.900Z,94605.97
2022-11-05T20:32:03.645Z,94608.34
2022-11-05T20:34:32.784Z,94613.72
2022-11-05T20:37:03.113Z,94610.97
2022-11-05T20:39:31.848Z,94616.16
2022-11-05T20:42:01.750Z,94611.38
2022-11-05T20:44:30.128Z,94578.72
2022-11-05T20:47:01.168Z,94599.94
2022-11-05T20:49:29.533Z,94614.88
2022-11-05T20:51:57.802Z,94609.22
2022-11-05T20:54:26.002Z,94611.50
2022-11-05T20:56:54.505Z,94607.31
2022-11-05T20:59:24.107Z,94613.84
2022-11-05T21:01:52.757Z,94618.38
2022-11-05T21:04:21.124Z,94614.13
2022-11-05T21:06:49.750Z,94619.28
2022-11-05T21:09:19.893Z,94620.53
2022-11-05T21:12:05.102Z,94591.63
2022-11-05T21:14:34.945Z,94615.50
2022-11-05T21:17:04.125Z,94606.13
2022-11-05T21:19:33.655Z,94613.41
2022-11-05T21:22:02.109Z,94625.91
2022-11-05T21:24:31.511Z,94611.66
2022-11-05T21:26:59.677Z,94611.22
2022-11-05T21:29:28.173Z,94618.75
2022-11-05T21:31:57.548Z,94588.16
2022-11-05T21:34:25.898Z,94608.34
2022-11-05T21:36:54.235Z,94615.91
2022-11-05T21:39:22.351Z,94615.50
2022-11-05T21:41:50.258Z,94597.69
2022-11-05T21:44:18.413Z,94602.44
2022-11-05T21:46:46.441Z,94604.00
2022-11-05T21:49:17.321Z,94599.81
2022-11-05T21:52:02.761Z,94607.09
2022-11-05T21:54:48.564Z,94611.78
2022-11-05T21:57:36.106Z,94613.72
2022-11-05T22:00:06.958Z,94615.19
2022-11-05T22:02:35.499Z,94565.63
2022-11-05T22:05:07.471Z,94627.69
2022-11-05T22:07:38.336Z,94621.72
2022-11-05T22:10:16.681Z,94627.53
2022-11-05T22:12:46.490Z,94617.13
2022-11-05T22:15:15.318Z,94622.94
2022-11-05T22:17:46.986Z,94627.34
2022-11-05T22:20:17.563Z,94627.34
2022-11-05T22:22:47.779Z,94615.09
2022-11-05T22:25:16.310Z,94629.50
2022-11-05T22:27:44.997Z,94585.75
2022-11-05T22:30:15.179Z,94586.44
2022-11-05T22:32:43.328Z,94609.09
2022-11-05T22:35:11.478Z,94552.47
2022-11-05T22:37:41.974Z,94604.97
2022-11-05T22:40:10.981Z,94581.81
2022-11-05T22:42:39.862Z,94611.94
2022-11-05T22:45:09.052Z,94613.28
2022-11-05T22:47:37.063Z,94619.16
2022-11-05T22:50:06.071Z,94605.25
2022-11-05T22:52:34.121Z,94583.81
2022-11-05T22:55:06.317Z,94604.72
2022-11-05T22:57:34.806Z,94617.53
2022-11-05T23:00:03.560Z,94613.31
2022-11-05T23:02:31.731Z,94565.25
2022-11-05T23:05:01.071Z,94619.97
2022-11-05T23:07:48.172Z,94614.22
2022-11-05T23:10:35.506Z,94608.28
2022-11-05T23:13:04.649Z,94610.59
2022-11-05T23:15:50.874Z,94615.50
2022-11-05T23:18:36.533Z,94608.03
2022-11-05T23:21:36.750Z,94626.78
2022-11-05T23:24:08.533Z,94623.81
2022-11-05T23:26:52.846Z,94628.16
2022-11-05T23:29:23.706Z,94624.88
2022-11-05T23:32:10.335Z,94617.22
2022-11-05T23:34:38.827Z,94619.75
2022-11-05T23:37:24.845Z,94587.28
2022-11-05T23:39:53.557Z,94634.00
2022-11-05T23:42:40.220Z,94631.56
2022-11-05T23:45:26.995Z,94626.41
2022-11-05T23:48:13.493Z,94619.47
2022-11-05T23:50:42.976Z,94604.09
2022-11-05T23:53:12.005Z,94616.13
2022-11-05T23:55:44.210Z,94603.16
2022-11-05T23:58:13.976Z,94621.34
